Terminal Aerodrome Forecast
Issued by NWS Binghamton, NY

Home | Current Version | Previous Version | Text Only | Print | Product List | Glossary On
Versions: 1 2 3 4 5 6 7 8 9 10 11 12 13 14 15 16 17 18 19 20 21 22
000
FTUS41 KBGM 241100
TAFBGM
TAF
KBGM 241134Z 2412/2512 17012G25KT P6SM SCT008 OVC015 WS020/19050KT
      TEMPO 2412/2414 OVC008
     FM241400 19015G25KT P6SM OVC015
     FM241600 20015G25KT P6SM BKN035
     FM250000 23015G25KT P6SM BKN040=

USA.gov is the U.S. government's official web portal to all federal, state and local government web resources and services.